Laredo International, TX

8:35 PM CST en Enero 29, 2015 (GMT -0600)
Cotulla-La Salle County | Change Station
CLOSE
Current Station
Aeropuerto
Location: Cotulla,
Altura: 476 ft
Estaciones meteorológicas cercanas

Alt 476 ft 28.46 °N, 99.22 °W | Updated 42 minutes ago

Parcialmente nublado
Parcialmente nublado
68 ° F
Sensación térmica 68 ° F
N
9
Viento Variable Viento desde ENE

Hoy
Alta -- | Baja -- ° F
--% Posibilidad de precipitaciones
Ayer
Alta -- | Baja -- ° F
Precip. -- pul
7:25 AM 6:16 PM
Gibosa creciente, 79% visible
Presión 30.24 pul
Visibilidad 10.0 Millas
Nubes Despejado
Punto de rocío 57 ° F
Humedad 68%
Precipitaciones 0.00 pul
Espesor de la nieve No disponible.
UV 0 de una escala de 12
Polen 8.20 de una escala de 12
Calidad del aire No disponible.
Flu Activity No disponible.
METAR KCOT 300153Z AUTO 06008KT 10SM CLR 20/14 A3025 RMK AO2 SLP240 T02000139

More Conditions Fewer Conditions

Presión 30.24 pul
Visibilidad 10.0 Millas
Nubes Despejado
Punto de rocío 57 ° F
Humedad 68%
Precipitaciones 0.00 pul
Espesor de la nieve No disponible.
UV 0 de una escala de 12
Polen 8.20 de una escala de 12
Calidad del aire No disponible.
Flu Activity No disponible.
METAR KCOT 300153Z AUTO 06008KT 10SM CLR 20/14 A3025 RMK AO2 SLP240 T02000139

More Conditions Fewer Conditions

10-Day Weather Forecast

Almanac

Astronomía

Jan. 29, 2015 Salida Puesta
Hora real
Crepúsculo civil
Crepúsculo náutico
Crepúsculo astronómico
Luna
Horas de luz
Horas de luz
Tomorrow will be .
, % of the Moon is Illuminated

Extremos de hoy

Máximos del estado Bajos del estado

Community

WunderPhotos

Upload Photos

1,791,695 ¡fotos cargadas!

WunderBlogs® & News

Nearby

Calidad del aire

  Calidad del aire Índice AQ Contaminante
Not available.

Grosos de nieve

Estación Profundido Altura

Actividad de terremotos

Ciudad Distance Mag. Tiempo y dato
Magnitud mínima muestra es 2,5.

Temperaturas de aguas costeras

Lugar Temperatura

Estaciones meteorológicas cercanas